createdAt,value
2023-03-03T00:01:08.360Z,103057.25
2023-03-03T00:03:36.662Z,103059.88
2023-03-03T00:06:06.107Z,103061.56
2023-03-03T00:08:34.365Z,103053.69
2023-03-03T00:11:06.295Z,103060.63
2023-03-03T00:13:41.104Z,103053.59
2023-03-03T00:16:16.137Z,103055.28
2023-03-03T00:18:46.641Z,103055.94
2023-03-03T00:21:29.185Z,103065.69
2023-03-03T00:24:04.798Z,103052.75
2023-03-03T00:26:38.741Z,103057.06
2023-03-03T00:29:29.605Z,103057.16
2023-03-03T00:32:08.917Z,103055.38
2023-03-03T00:34:38.512Z,103059.88
2023-03-03T00:37:24.828Z,103058.00
2023-03-03T00:39:53.115Z,103053.69
2023-03-03T00:42:23.553Z,103059.78
2023-03-03T00:44:58.139Z,103057.06
2023-03-03T00:47:32.541Z,103057.06
2023-03-03T00:50:26.764Z,103063.06
2023-03-03T00:53:02.503Z,103060.34
2023-03-03T00:55:31.607Z,103056.88
2023-03-03T00:58:01.189Z,103061.28
2023-03-03T01:00:33.946Z,103061.38
2023-03-03T01:03:05.340Z,103061.19
2023-03-03T01:05:33.952Z,103064.75
2023-03-03T01:08:03.171Z,103063.25
2023-03-03T01:10:35.661Z,103065.69
2023-03-03T01:13:06.552Z,103065.88
2023-03-03T01:15:34.979Z,103065.03
2023-03-03T01:18:03.290Z,103066.63
2023-03-03T01:20:31.420Z,103066.72
2023-03-03T01:22:59.630Z,103065.88
2023-03-03T01:25:27.769Z,103062.41
2023-03-03T01:27:55.917Z,103062.25
2023-03-03T01:30:25.890Z,103062.13
2023-03-03T01:32:54.813Z,103067.38
2023-03-03T01:35:23.288Z,103065.59
2023-03-03T01:37:53.883Z,103064.38
2023-03-03T01:40:24.895Z,103071.31
2023-03-03T01:42:53.583Z,103060.75
2023-03-03T01:45:23.630Z,103065.03
2023-03-03T01:47:59.842Z,103065.88
2023-03-03T01:50:37.403Z,103061.66
2023-03-03T01:53:08.227Z,103063.44
2023-03-03T01:55:40.124Z,103063.44
2023-03-03T01:58:12.315Z,103060.81
2023-03-03T02:00:43.622Z,103058.97
2023-03-03T02:03:13.372Z,103065.16
2023-03-03T02:05:43.211Z,103064.38
2023-03-03T02:08:16.062Z,103063.53
2023-03-03T02:10:46.148Z,103064.56
2023-03-03T02:13:14.726Z,103062.69
2023-03-03T02:15:42.887Z,103064.28
2023-03-03T02:18:14.468Z,103057.44
2023-03-03T02:20:54.763Z,103055.78
2023-03-03T02:23:28.555Z,103055.66
2023-03-03T02:26:12.193Z,103063.44
2023-03-03T02:28:42.081Z,103054.94
2023-03-03T02:31:14.385Z,103062.69
2023-03-03T02:33:43.173Z,103060.81
2023-03-03T02:36:14.843Z,103059.91
2023-03-03T02:38:49.661Z,103061.59
2023-03-03T02:41:28.329Z,103061.59
2023-03-03T02:44:00.456Z,103065.88
2023-03-03T02:46:29.173Z,103068.50
2023-03-03T02:48:57.308Z,103066.63
2023-03-03T02:51:25.463Z,103076.22
2023-03-03T02:53:53.613Z,103070.13
2023-03-03T02:56:23.893Z,103070.19
2023-03-03T02:58:52.259Z,103071.88
2023-03-03T03:01:20.816Z,103068.50
2023-03-03T03:03:49.020Z,103073.66
2023-03-03T03:06:17.246Z,103069.19
2023-03-03T03:08:45.512Z,103066.56
2023-03-03T03:11:13.637Z,103060.47
2023-03-03T03:13:43.141Z,103066.56
2023-03-03T03:16:11.555Z,103069.91
2023-03-03T03:18:39.706Z,103062.88
2023-03-03T03:21:09.731Z,103067.28
2023-03-03T03:23:38.034Z,103064.59
2023-03-03T03:26:07.221Z,103061.09
2023-03-03T03:28:36.329Z,103060.25
2023-03-03T03:31:07.935Z,103067.41
2023-03-03T03:33:36.104Z,103064.28
2023-03-03T03:36:06.393Z,103062.25
2023-03-03T03:38:36.778Z,103060.47
2023-03-03T03:41:05.888Z,103064.00
2023-03-03T03:43:34.666Z,103061.38
2023-03-03T03:46:02.976Z,103065.72
2023-03-03T03:48:32.826Z,103072.63
2023-03-03T03:51:00.927Z,103064.88
2023-03-03T03:53:29.306Z,103065.78
2023-03-03T03:55:57.452Z,103057.06
2023-03-03T03:58:25.637Z,103058.97
2023-03-03T04:00:53.991Z,103052.03
2023-03-03T04:03:22.411Z,103055.50
2023-03-03T04:05:54.150Z,103046.94
2023-03-03T04:08:22.538Z,103045.28
2023-03-03T04:10:50.749Z,103047.91
2023-03-03T04:13:18.898Z,103051.53
2023-03-03T04:15:47.114Z,103054.81
2023-03-03T04:18:15.260Z,103049.47
2023-03-03T04:20:43.604Z,103052.94
2023-03-03T04:23:13.176Z,103051.91
2023-03-03T04:25:41.508Z,103048.81
2023-03-03T04:28:10.770Z,103054.94
2023-03-03T04:30:38.909Z,103061.84
2023-03-03T04:33:07.109Z,103055.78
2023-03-03T04:35:35.253Z,103053.22
2023-03-03T04:38:03.548Z,103060.19
2023-03-03T04:40:33.107Z,103065.44
2023-03-03T04:43:01.181Z,103060.19
2023-03-03T04:45:29.299Z,103063.66
2023-03-03T04:47:57.431Z,103061.03
2023-03-03T04:50:25.545Z,103061.09
2023-03-03T04:52:53.762Z,103066.44
2023-03-03T04:55:22.571Z,103062.13
2023-03-03T04:57:52.073Z,103068.13
2023-03-03T05:00:20.962Z,103062.88
2023-03-03T05:02:50.052Z,103065.59
2023-03-03T05:05:18.381Z,103059.63
2023-03-03T05:07:46.540Z,103068.50
2023-03-03T05:10:14.660Z,103058.94
2023-03-03T05:12:42.837Z,103062.31
2023-03-03T05:15:12.764Z,103071.03
2023-03-03T05:17:41.258Z,103057.91
2023-03-03T05:20:11.359Z,103069.34
2023-03-03T05:22:39.482Z,103060.63
2023-03-03T05:25:09.925Z,103063.25
2023-03-03T05:27:38.101Z,103066.81
2023-03-03T05:30:07.408Z,103059.00
2023-03-03T05:32:37.108Z,103068.59
2023-03-03T05:35:06.281Z,103060.78
2023-03-03T05:37:34.430Z,103065.13
2023-03-03T05:40:02.677Z,103065.22
2023-03-03T05:42:30.845Z,103069.63
2023-03-03T05:44:59.002Z,103066.16
2023-03-03T05:47:27.154Z,103066.16
2023-03-03T05:49:56.661Z,103057.44
2023-03-03T05:52:25.458Z,103065.97
2023-03-03T05:54:53.652Z,103057.34
2023-03-03T05:57:21.751Z,103055.56
2023-03-03T05:59:49.941Z,103056.50
2023-03-03T06:02:18.092Z,103058.16
2023-03-03T06:04:46.320Z,103055.56
2023-03-03T06:07:15.867Z,103050.41
2023-03-03T06:09:44.054Z,103059.22
2023-03-03T06:12:12.408Z,103054.81
2023-03-03T06:14:40.593Z,103054.81
2023-03-03T06:17:08.750Z,103052.19
2023-03-03T06:19:37.757Z,103056.88
2023-03-03T06:22:06.023Z,103052.56
2023-03-03T06:24:35.567Z,103055.81
2023-03-03T06:27:03.775Z,103056.66
2023-03-03T06:29:31.945Z,103061.91
2023-03-03T06:32:00.341Z,103068.09
2023-03-03T06:34:31.801Z,103060.22
2023-03-03T06:36:59.906Z,103063.91
2023-03-03T06:39:28.312Z,103067.38
2023-03-03T06:41:57.835Z,103080.47
2023-03-03T06:44:28.555Z,103070.06
2023-03-03T06:46:59.045Z,103067.38
2023-03-03T06:49:27.181Z,103074.47
2023-03-03T06:51:55.345Z,103075.31
2023-03-03T06:54:31.016Z,103070.00
2023-03-03T06:57:06.933Z,103076.06
2023-03-03T06:59:35.138Z,103079.66
2023-03-03T07:02:03.453Z,103085.81
2023-03-03T07:04:34.541Z,103087.25
2023-03-03T07:07:12.372Z,103090.97
2023-03-03T07:09:40.540Z,103098.19
2023-03-03T07:12:17.467Z,103097.16
2023-03-03T07:14:50.775Z,103102.41
2023-03-03T07:17:21.163Z,103096.28
2023-03-03T07:19:49.951Z,103091.91
2023-03-03T07:22:19.824Z,103104.25
2023-03-03T07:24:52.533Z,103104.25
2023-03-03T07:27:25.686Z,103101.66
2023-03-03T07:29:56.399Z,103110.34
2023-03-03T07:32:29.487Z,103111.03
2023-03-03T07:34:58.243Z,103111.97
2023-03-03T07:37:35.860Z,103111.97
2023-03-03T07:40:26.703Z,103111.97
2023-03-03T07:42:56.206Z,103113.66
2023-03-03T07:45:29.216Z,103118.34
2023-03-03T07:48:02.800Z,103129.03
2023-03-03T07:50:31.312Z,103129.13
2023-03-03T07:53:01.517Z,103124.72
2023-03-03T07:55:35.562Z,103125.66
2023-03-03T07:58:24.304Z,103124.63
2023-03-03T08:01:28.615Z,103126.22
2023-03-03T08:03:58.017Z,103123.59
2023-03-03T08:06:41.449Z,103122.66
2023-03-03T08:09:32.206Z,103115.72
2023-03-03T08:12:07.417Z,103120.81
2023-03-03T08:14:38.600Z,103126.81
2023-03-03T08:17:16.029Z,103128.59
2023-03-03T08:19:44.167Z,103136.47
2023-03-03T08:22:16.555Z,103138.13
2023-03-03T08:24:44.963Z,103138.13
2023-03-03T08:27:13.187Z,103141.59
2023-03-03T08:29:42.691Z,103146.84
2023-03-03T08:32:10.838Z,103144.22
2023-03-03T08:34:39.069Z,103143.28
2023-03-03T08:37:07.234Z,103144.91
2023-03-03T08:39:35.634Z,103150.25
2023-03-03T08:42:05.813Z,103150.16
2023-03-03T08:44:33.952Z,103151.84
2023-03-03T08:47:03.497Z,103150.91
2023-03-03T08:49:31.583Z,103157.75
2023-03-03T08:52:00.880Z,103156.81
2023-03-03T08:54:29.056Z,103153.25
2023-03-03T08:56:57.143Z,103155.97
2023-03-03T08:59:25.285Z,103165.63
2023-03-03T09:01:53.418Z,103164.78
2023-03-03T09:04:22.928Z,103170.97
2023-03-03T09:06:51.424Z,103173.50
2023-03-03T09:09:19.506Z,103171.81
2023-03-03T09:11:48.123Z,103173.50
2023-03-03T09:14:17.893Z,103167.50
2023-03-03T09:16:51.299Z,103172.75
2023-03-03T09:19:28.202Z,103174.63
2023-03-03T09:21:57.870Z,103182.38
2023-03-03T09:24:28.603Z,103179.75
2023-03-03T09:26:58.940Z,103182.38
2023-03-03T09:29:29.384Z,103185.00
2023-03-03T09:31:59.222Z,103188.50
2023-03-03T09:34:39.280Z,103185.94
2023-03-03T09:37:20.781Z,103190.25
2023-03-03T09:39:51.288Z,103198.13
2023-03-03T09:42:38.897Z,103195.44
2023-03-03T09:45:27.923Z,103203.38
2023-03-03T09:48:23.216Z,103205.94
2023-03-03T09:51:03.509Z,103198.81
2023-03-03T09:53:47.841Z,103206.53
2023-03-03T09:56:20.607Z,103207.25
2023-03-03T09:59:01.187Z,103210.47
2023-03-03T10:01:49.502Z,103207.66
2023-03-03T10:04:34.566Z,103211.03
2023-03-03T10:07:20.503Z,103206.81
2023-03-03T10:10:17.972Z,103210.28
2023-03-03T10:12:58.217Z,103206.91
2023-03-03T10:15:35.582Z,103207.84
2023-03-03T10:18:13.379Z,103208.78
2023-03-03T10:20:58.602Z,103208.88
2023-03-03T10:23:44.042Z,103207.00
2023-03-03T10:26:31.669Z,103210.38
2023-03-03T10:29:23.107Z,103212.75
2023-03-03T10:32:02.254Z,103210.13
2023-03-03T10:34:49.895Z,103221.38
2023-03-03T10:37:27.925Z,103218.38
2023-03-03T10:40:10.986Z,103219.88
2023-03-03T10:43:01.517Z,103221.38
2023-03-03T10:45:54.242Z,103220.09
2023-03-03T10:48:41.176Z,103220.66
2023-03-03T10:51:24.050Z,103220.28
2023-03-03T10:54:00.966Z,103221.84
2023-03-03T10:56:52.485Z,103222.00
2023-03-03T10:59:41.928Z,103216.75
2023-03-03T11:02:19.531Z,103229.28
2023-03-03T11:05:24.315Z,103233.22
2023-03-03T11:07:59.001Z,103239.41
2023-03-03T11:10:48.406Z,103236.78
2023-03-03T11:13:25.393Z,103243.34
2023-03-03T11:16:05.917Z,103237.34
2023-03-03T11:18:47.631Z,103240.53
2023-03-03T11:21:19.229Z,103249.34
2023-03-03T11:24:25.316Z,103247.09
2023-03-03T11:27:17.534Z,103247.69
2023-03-03T11:29:59.836Z,103250.03
2023-03-03T11:32:38.301Z,103245.94
2023-03-03T11:35:20.622Z,103250.84
2023-03-03T11:37:58.519Z,103247.00
2023-03-03T11:40:29.966Z,103258.81
2023-03-03T11:43:02.529Z,103261.44
2023-03-03T11:45:40.454Z,103246.81
2023-03-03T11:48:15.980Z,103255.03
2023-03-03T11:50:51.189Z,103257.00
2023-03-03T11:53:30.586Z,103255.00
2023-03-03T11:56:08.694Z,103255.94
2023-03-03T11:58:46.057Z,103257.28
2023-03-03T12:01:24.159Z,103256.53
2023-03-03T12:03:59.725Z,103254.31
2023-03-03T12:06:37.592Z,103258.53
2023-03-03T12:09:23.849Z,103262.38
2023-03-03T12:11:55.994Z,103263.63
2023-03-03T12:14:49.051Z,103259.84
2023-03-03T12:17:31.449Z,103264.81
2023-03-03T12:20:09.664Z,103270.34
2023-03-03T12:22:45.905Z,103267.34
2023-03-03T12:25:34.791Z,103265.13
2023-03-03T12:28:10.881Z,103266.06
2023-03-03T12:30:56.314Z,103265.41
2023-03-03T12:33:39.203Z,103258.66
2023-03-03T12:36:21.492Z,103262.41
2023-03-03T12:38:56.784Z,103261.72
2023-03-03T12:41:34.405Z,103260.22
2023-03-03T12:44:11.601Z,103259.28
2023-03-03T12:46:47.361Z,103258.34
2023-03-03T12:49:17.086Z,103256.63
2023-03-03T12:51:56.743Z,103254.84
2023-03-03T12:54:57.109Z,103256.63
2023-03-03T12:57:35.160Z,103253.94
2023-03-03T13:00:24.420Z,103250.28
2023-03-03T13:03:01.219Z,103250.84
2023-03-03T13:05:44.647Z,103242.91
2023-03-03T13:08:32.486Z,103243.75
2023-03-03T13:11:14.362Z,103241.75
2023-03-03T13:13:50.882Z,103234.75
2023-03-03T13:16:40.262Z,103235.38
2023-03-03T13:19:13.722Z,103231.84
2023-03-03T13:21:50.131Z,103234.75
2023-03-03T13:24:23.239Z,103236.31
2023-03-03T13:26:55.693Z,103238.00
2023-03-03T13:29:28.731Z,103236.22
2023-03-03T13:32:01.430Z,103240.06
2023-03-03T13:34:41.686Z,103234.50
2023-03-03T13:37:19.889Z,103231.69
2023-03-03T13:39:58.341Z,103238.34
2023-03-03T13:42:33.904Z,103225.13
2023-03-03T13:45:08.375Z,103228.22
2023-03-03T13:47:47.387Z,103229.81
2023-03-03T13:50:23.608Z,103226.91
2023-03-03T13:53:08.574Z,103223.06
2023-03-03T13:55:43.994Z,103220.88
2023-03-03T13:58:22.741Z,103221.34
2023-03-03T14:00:58.870Z,103222.50
2023-03-03T14:04:24.275Z,103220.50
2023-03-03T14:06:57.576Z,103226.84
2023-03-03T14:09:44.169Z,103224.41
2023-03-03T14:12:21.838Z,103220.50
2023-03-03T14:14:58.451Z,103222.91
2023-03-03T14:17:34.957Z,103219.34
2023-03-03T14:20:14.263Z,103225.25
2023-03-03T14:22:48.203Z,103221.22
2023-03-03T14:25:18.061Z,103223.31
2023-03-03T14:28:02.790Z,103228.69
2023-03-03T14:30:38.074Z,103227.38
2023-03-03T14:33:21.942Z,103227.13
2023-03-03T14:36:05.015Z,103222.31
2023-03-03T14:38:46.552Z,103220.97
2023-03-03T14:41:19.281Z,103221.44
2023-03-03T14:43:58.882Z,103217.66
2023-03-03T14:46:40.369Z,103221.06
2023-03-03T14:49:16.605Z,103225.38
2023-03-03T14:51:47.480Z,103214.63
2023-03-03T14:54:25.626Z,103215.28
2023-03-03T14:57:01.587Z,103205.28
2023-03-03T14:59:30.039Z,103207.25
2023-03-03T15:02:30.082Z,103210.19
2023-03-03T15:05:17.609Z,103202.13
2023-03-03T15:07:47.427Z,103205.63
2023-03-03T15:10:29.332Z,103197.97
2023-03-03T15:12:59.428Z,103191.50
2023-03-03T15:15:29.090Z,103184.88
2023-03-03T15:18:04.251Z,103187.84
2023-03-03T15:20:40.412Z,103189.19
2023-03-03T15:23:40.008Z,103181.59
2023-03-03T15:26:13.224Z,103189.19
2023-03-03T15:28:55.988Z,103177.63
2023-03-03T15:31:37.485Z,103185.44
2023-03-03T15:34:23.164Z,103180.16
2023-03-03T15:36:58.743Z,103184.38
2023-03-03T15:39:36.243Z,103182.31
2023-03-03T15:42:07.170Z,103185.78
2023-03-03T15:44:52.030Z,103191.25
2023-03-03T15:47:50.176Z,103192.38
2023-03-03T15:50:45.026Z,103195.00
2023-03-03T15:53:28.609Z,103189.91
2023-03-03T15:56:13.311Z,103189.91
2023-03-03T15:59:05.750Z,103193.09
2023-03-03T16:01:40.073Z,103198.19
2023-03-03T16:04:12.899Z,103197.59
2023-03-03T16:06:51.237Z,103193.56
2023-03-03T16:09:31.001Z,103200.09
2023-03-03T16:12:10.254Z,103195.50
2023-03-03T16:15:04.011Z,103205.59
2023-03-03T16:17:43.773Z,103207.09
2023-03-03T16:20:23.204Z,103197.97
2023-03-03T16:23:02.829Z,103208.91
2023-03-03T16:25:43.668Z,103209.19
2023-03-03T16:28:20.294Z,103210.38
2023-03-03T16:30:53.702Z,103205.31
2023-03-03T16:33:32.793Z,103216.66
2023-03-03T16:36:10.042Z,103206.84
2023-03-03T16:38:41.366Z,103211.72
2023-03-03T16:41:14.136Z,103209.69
2023-03-03T16:44:04.566Z,103211.19
2023-03-03T16:46:37.281Z,103211.19
2023-03-03T16:49:14.678Z,103213.88
2023-03-03T16:51:50.069Z,103219.34
2023-03-03T16:54:28.231Z,103216.13
2023-03-03T16:57:06.408Z,103219.03
2023-03-03T17:00:00.389Z,103213.34
2023-03-03T17:02:52.597Z,103211.00
2023-03-03T17:05:31.081Z,103207.69
2023-03-03T17:08:14.611Z,103213.13
2023-03-03T17:10:47.487Z,103208.16
2023-03-03T17:13:38.831Z,103214.50
2023-03-03T17:16:16.058Z,103204.94
2023-03-03T17:18:58.135Z,103211.19
2023-03-03T17:21:39.186Z,103208.56
2023-03-03T17:24:18.974Z,103208.72
2023-03-03T17:26:57.339Z,103216.44
2023-03-03T17:29:40.736Z,103222.03
2023-03-03T17:32:25.678Z,103225.41
2023-03-03T17:35:09.966Z,103218.31
2023-03-03T17:37:50.352Z,103226.09
2023-03-03T17:40:43.407Z,103228.81
2023-03-03T17:43:14.748Z,103234.06
2023-03-03T17:45:46.834Z,103234.13
2023-03-03T17:48:41.269Z,103233.47
2023-03-03T17:51:26.124Z,103243.19
2023-03-03T17:54:09.697Z,103237.50
2023-03-03T17:56:47.268Z,103241.03
2023-03-03T17:59:31.146Z,103237.84
2023-03-03T18:02:20.842Z,103238.88
2023-03-03T18:05:06.185Z,103251.19
2023-03-03T18:07:55.639Z,103251.13
2023-03-03T18:10:50.680Z,103253.81
2023-03-03T18:13:35.797Z,103256.44
2023-03-03T18:16:19.348Z,103253.75
2023-03-03T18:19:13.492Z,103259.00
2023-03-03T18:21:53.211Z,103263.41
2023-03-03T18:24:31.882Z,103264.31
2023-03-03T18:27:28.930Z,103268.72
2023-03-03T18:30:29.679Z,103273.13
2023-03-03T18:33:12.839Z,103268.06
2023-03-03T18:35:43.510Z,103271.53
2023-03-03T18:38:40.032Z,103276.78
2023-03-03T18:41:12.507Z,103272.28
2023-03-03T18:44:24.813Z,103276.84
2023-03-03T18:46:58.811Z,103282.16
2023-03-03T18:49:53.744Z,103281.31
2023-03-03T18:52:25.383Z,103284.69
2023-03-03T18:55:21.678Z,103289.09
2023-03-03T18:58:24.199Z,103284.69
2023-03-03T19:00:56.452Z,103288.25
2023-03-03T19:03:35.233Z,103288.16
2023-03-03T19:06:04.231Z,103289.88
2023-03-03T19:08:53.913Z,103291.47
2023-03-03T19:11:38.774Z,103288.78
2023-03-03T19:14:33.141Z,103287.84
2023-03-03T19:17:41.206Z,103298.25
2023-03-03T19:20:14.361Z,103295.72
2023-03-03T19:22:48.109Z,103298.41
2023-03-03T19:25:22.759Z,103305.53
2023-03-03T19:28:04.795Z,103296.91
2023-03-03T19:30:56.091Z,103305.69
2023-03-03T19:33:52.312Z,103302.31
2023-03-03T19:36:57.678Z,103301.78
2023-03-03T19:39:51.760Z,103306.00
2023-03-03T19:42:32.889Z,103308.53
2023-03-03T19:45:20.667Z,103305.91
2023-03-03T19:47:55.686Z,103305.78
2023-03-03T19:50:38.184Z,103305.38
2023-03-03T19:53:16.543Z,103304.44
2023-03-03T19:55:58.688Z,103309.59
2023-03-03T19:58:36.647Z,103313.97
2023-03-03T20:01:15.194Z,103321.00
2023-03-03T20:04:07.567Z,103315.84
2023-03-03T20:06:50.837Z,103312.53
2023-03-03T20:09:25.975Z,103316.75
2023-03-03T20:12:09.735Z,103308.06
2023-03-03T20:14:50.145Z,103319.56
2023-03-03T20:17:44.511Z,103317.34
2023-03-03T20:20:35.646Z,103314.81
2023-03-03T20:23:16.671Z,103320.13
2023-03-03T20:25:47.766Z,103314.56
2023-03-03T20:28:33.860Z,103312.78
2023-03-03T20:31:11.377Z,103316.16
2023-03-03T20:33:51.266Z,103318.03
2023-03-03T20:36:28.760Z,103324.97
2023-03-03T20:39:07.986Z,103315.56
2023-03-03T20:41:51.806Z,103323.28
2023-03-03T20:44:32.738Z,103324.03
2023-03-03T20:47:08.126Z,103322.19
2023-03-03T20:49:57.882Z,103323.72
2023-03-03T20:52:34.568Z,103330.81
2023-03-03T20:55:16.242Z,103328.38
2023-03-03T20:57:53.116Z,103324.81
2023-03-03T21:00:27.089Z,103332.44
2023-03-03T21:03:07.051Z,103338.53
2023-03-03T21:05:35.388Z,103347.31
2023-03-03T21:08:08.134Z,103344.63
2023-03-03T21:10:41.551Z,103346.38
2023-03-03T21:13:29.513Z,103346.38
2023-03-03T21:16:03.389Z,103350.84
2023-03-03T21:18:32.265Z,103349.09
2023-03-03T21:21:00.432Z,103352.56
2023-03-03T21:23:28.711Z,103350.94
2023-03-03T21:25:59.328Z,103349.94
2023-03-03T21:28:29.409Z,103345.69
2023-03-03T21:31:02.166Z,103342.25
2023-03-03T21:33:50.330Z,103346.53
2023-03-03T21:36:20.267Z,103342.25
2023-03-03T21:38:48.971Z,103351.78
2023-03-03T21:41:19.593Z,103348.22
2023-03-03T21:43:49.834Z,103347.31
2023-03-03T21:46:24.525Z,103349.00
2023-03-03T21:48:53.468Z,103342.00
2023-03-03T21:51:24.388Z,103356.97
2023-03-03T21:53:52.621Z,103345.59
2023-03-03T21:56:22.159Z,103351.78
2023-03-03T21:58:50.267Z,103354.41
2023-03-03T22:01:18.497Z,103359.75
2023-03-03T22:03:46.980Z,103348.56
2023-03-03T22:06:15.262Z,103354.75
2023-03-03T22:08:45.815Z,103360.94
2023-03-03T22:11:15.590Z,103363.56
2023-03-03T22:13:45.421Z,103363.78
2023-03-03T22:16:13.782Z,103359.63
2023-03-03T22:18:41.975Z,103360.81
2023-03-03T22:21:10.081Z,103364.41
2023-03-03T22:23:38.406Z,103364.50
2023-03-03T22:26:06.628Z,103368.13
2023-03-03T22:28:34.756Z,103371.59
2023-03-03T22:31:04.351Z,103377.53
2023-03-03T22:33:32.562Z,103373.91
2023-03-03T22:36:00.688Z,103382.53
2023-03-03T22:38:28.846Z,103383.47
2023-03-03T22:40:56.965Z,103375.59
2023-03-03T22:43:25.838Z,103375.50
2023-03-03T22:45:54.192Z,103376.22
2023-03-03T22:48:24.455Z,103381.31
2023-03-03T22:50:53.083Z,103374.28
2023-03-03T22:53:21.929Z,103376.91
2023-03-03T22:55:50.250Z,103376.06
2023-03-03T22:58:20.168Z,103376.91
2023-03-03T23:00:49.248Z,103381.97
2023-03-03T23:03:17.751Z,103384.59
2023-03-03T23:05:51.677Z,103380.13
2023-03-03T23:08:21.879Z,103383.59
2023-03-03T23:10:50.100Z,103377.56
2023-03-03T23:13:18.472Z,103382.75
2023-03-03T23:15:46.766Z,103376.56
2023-03-03T23:18:15.052Z,103385.28
2023-03-03T23:20:46.085Z,103388.69
2023-03-03T23:23:15.817Z,103383.34
2023-03-03T23:25:44.282Z,103382.50
2023-03-03T23:28:15.505Z,103382.56
2023-03-03T23:30:43.952Z,103385.28
2023-03-03T23:33:12.237Z,103380.03
2023-03-03T23:35:40.445Z,103380.81
2023-03-03T23:38:08.688Z,103381.72
2023-03-03T23:40:38.249Z,103378.25
2023-03-03T23:43:11.456Z,103387.91
2023-03-03T23:45:39.555Z,103383.50
2023-03-03T23:48:08.157Z,103385.28
2023-03-03T23:50:37.292Z,103380.97
2023-03-03T23:53:06.193Z,103382.66
2023-03-03T23:55:34.489Z,103382.66
2023-03-03T23:58:04.095Z,103378.25
